»·PEaware :: N910CJ KPTV-KNUC

N910CJ :: KPTV-KNUC

FLIGHT INFORMATION

Flight Status: Arrived
Operator: Privately registered:
United States
More flights under this callsign
Pilot: Calvin W. (232)
Aircraft: CESSNA 172 SKYHAWK
(C172)
More flights by this aircraft type
Origin: KPTV Porterville Mun
United States
Destination: KNUC San Clemente I NALF
United States
More flights between these airports :: More routes between these airports
Route: +TLE V165 EHF V23 GMN V299 VTU V27 SXC
File this flight plan on PilotEdge
Remarks: / V /
Altitude:
(Current/Filed)
3,000ft
Speed:
(Current/Filed)
105kts
Departed: 07-Mar-14 11:56 AM
Arrived: 07-Mar-14 01:47 PM
Distance/Time
Traveled:
182nm/1:51
Distance/Time
To Go:
Arrived

Flight Plot

Page will automatically refresh every two minutes.

Flight plan parsing failed; only flown route is shown


Map Options




Map Legend


Flown Route
Filed Route
Departure Airport
Arrival Airport
Navaid (VOR, NDB)
Fix

Horizontal Profiles

Position Reports

Time Latitude Longitude Heading Altitude Ground
Speed
07-Mar-14 11:41 36.029917 -119.058429 215 445ft 0kts
07-Mar-14 11:42 36.029914 -119.058431 215 445ft 0kts
07-Mar-14 11:43 36.029912 -119.058434 215 445ft 0kts
07-Mar-14 11:44 36.029909 -119.058436 215 445ft 0kts
07-Mar-14 11:45 36.029907 -119.058438 215 445ft 0kts
07-Mar-14 11:46 36.029251 -119.058882 221 445ft 10kts
07-Mar-14 11:47 36.026828 -119.056721 127 445ft 0kts
07-Mar-14 11:48 36.026828 -119.056721 127 445ft 0kts
07-Mar-14 11:49 36.026647 -119.056583 158 445ft 15kts
07-Mar-14 11:50 36.024991 -119.057154 309 445ft 38kts
07-Mar-14 11:51 36.036099 -119.075206 233 905ft 82kts
07-Mar-14 11:52 36.017638 -119.058062 152 1649ft 99kts
07-Mar-14 11:53 35.986139 -119.043673 173 1378ft 114kts
07-Mar-14 11:54 35.958251 -119.033816 181 1416ft 104kts
07-Mar-14 11:55 35.929209 -119.025784 170 1413ft 106kts
07-Mar-14 11:56 35.900325 -119.020768 217 1374ft 102kts
07-Mar-14 11:57 35.875815 -119.022151 216 1373ft 101kts
07-Mar-14 11:58 35.851767 -119.030086 191 1841ft 91kts
07-Mar-14 11:59 35.827503 -119.035452 193 2506ft 89kts
07-Mar-14 12:00 35.798333 -119.041070 189 2602ft 120kts
07-Mar-14 12:01 35.773351 -119.045048 188 3118ft 101kts
07-Mar-14 12:02 35.750375 -119.048789 189 3696ft 93kts
07-Mar-14 12:03 35.750164 -119.048825 189 3702ft 93kts
07-Mar-14 12:04 35.750164 -119.048825 189 3702ft 93kts
07-Mar-14 12:05 35.750164 -119.048825 189 3702ft 93kts
07-Mar-14 12:06 35.750164 -119.048825 189 3702ft 93kts
07-Mar-14 12:07 35.750164 -119.048825 189 3702ft 93kts
07-Mar-14 12:08 35.743953 -119.049929 189 3864ft 92kts
07-Mar-14 12:09 35.719396 -119.054323 190 4551ft 88kts
07-Mar-14 12:10 35.695259 -119.057247 193 5244ft 86kts
07-Mar-14 12:11 35.670724 -119.063055 194 5781ft 92kts
07-Mar-14 12:12 35.645446 -119.068435 188 6290ft 92kts
07-Mar-14 12:13 35.620109 -119.072560 185 6785ft 91kts
07-Mar-14 12:14 35.595161 -119.075941 185 7278ft 89kts
07-Mar-14 12:15 35.575760 -119.078663 185 7789ft 78kts
07-Mar-14 12:16 35.552857 -119.082399 187 8380ft 77kts
07-Mar-14 12:17 35.535870 -119.087294 197 8793ft 76kts
07-Mar-14 12:18 35.518256 -119.091352 187 9176ft 79kts
07-Mar-14 12:19 35.495999 -119.095301 187 9586ft 83kts
07-Mar-14 12:20 35.485613 -119.097009 179 9772ft 83kts
07-Mar-14 12:21 35.485613 -119.097009 179 9772ft 83kts
07-Mar-14 12:22 35.478309 -119.095113 161 9893ft 84kts
07-Mar-14 12:23 35.465633 -119.090722 161 10034ft 95kts
07-Mar-14 12:24 35.436023 -119.080410 162 10011ft 119kts
07-Mar-14 12:25 35.409414 -119.071125 163 10008ft 123kts
07-Mar-14 12:26 35.376230 -119.059530 163 10007ft 124kts
07-Mar-14 12:27 35.342840 -119.047867 163 10007ft 124kts
07-Mar-14 12:28 35.309534 -119.036235 163 10003ft 123kts
07-Mar-14 12:29 35.276537 -119.024728 163 10005ft 123kts
07-Mar-14 12:30 35.243334 -119.013152 163 10005ft 123kts
07-Mar-14 12:31 35.210299 -119.001652 163 10005ft 123kts
07-Mar-14 12:32 35.177121 -118.990106 163 10004ft 123kts
07-Mar-14 12:33 35.144043 -118.978606 163 10001ft 122kts
07-Mar-14 12:34 35.111305 -118.967239 163 10000ft 122kts
07-Mar-14 12:35 35.078777 -118.955952 163 10001ft 121kts
07-Mar-14 12:36 35.046801 -118.944865 163 10002ft 122kts
07-Mar-14 12:37 35.013790 -118.933424 164 10004ft 123kts
07-Mar-14 12:38 34.980741 -118.921991 164 10004ft 123kts
07-Mar-14 12:39 34.947858 -118.910623 164 10001ft 121kts
07-Mar-14 12:40 34.915386 -118.899420 164 10000ft 120kts
07-Mar-14 12:41 34.890197 -118.890731 164 10000ft 120kts
07-Mar-14 12:42 34.862877 -118.881321 164 10000ft 120kts
07-Mar-14 12:43 34.835765 -118.872010 164 10000ft 120kts
07-Mar-14 12:44 34.803165 -118.861993 176 10002ft 120kts
07-Mar-14 12:45 34.766155 -118.862641 187 9909ft 141kts
07-Mar-14 12:46 34.726866 -118.864266 187 9907ft 141kts
07-Mar-14 12:47 34.687576 -118.865989 187 9907ft 141kts
07-Mar-14 12:48 34.648552 -118.867699 187 9907ft 141kts
07-Mar-14 12:49 34.609136 -118.869436 187 9907ft 141kts
07-Mar-14 12:50 34.569855 -118.871161 187 9907ft 141kts
07-Mar-14 12:51 34.530694 -118.872889 187 9907ft 141kts
07-Mar-14 12:52 34.491498 -118.874637 185 9908ft 139kts
07-Mar-14 12:53 34.452784 -118.876359 186 9906ft 138kts
07-Mar-14 12:54 34.414239 -118.878099 187 9907ft 138kts
07-Mar-14 12:55 34.375434 -118.879958 188 9907ft 139kts
07-Mar-14 13:06 34.071257 -119.010744 141 9926ft 143kts
07-Mar-14 13:07 34.038924 -118.982601 142 9926ft 143kts
07-Mar-14 13:08 34.006191 -118.954424 143 9926ft 145kts
07-Mar-14 13:09 33.973149 -118.926059 143 9925ft 145kts
07-Mar-14 13:10 33.940177 -118.897788 143 9925ft 145kts
07-Mar-14 13:11 33.907053 -118.869413 144 9923ft 146kts
07-Mar-14 13:12 33.874161 -118.841331 142 9923ft 141kts
07-Mar-14 13:13 33.841906 -118.813778 143 9928ft 144kts
07-Mar-14 13:14 33.809082 -118.785704 143 9926ft 145kts
07-Mar-14 13:15 33.780484 -118.761286 143 9926ft 145kts
07-Mar-14 13:16 33.747388 -118.733078 144 9939ft 141kts
07-Mar-14 13:17 33.721154 -118.710968 144 9929ft 130kts
07-Mar-14 13:18 33.690622 -118.685024 144 9932ft 140kts
07-Mar-14 13:19 33.657971 -118.657075 144 9926ft 145kts
07-Mar-14 13:20 33.624968 -118.628999 144 9925ft 145kts
07-Mar-14 13:21 33.597415 -118.605627 144 9926ft 145kts
07-Mar-14 13:22 33.564246 -118.577576 145 9952ft 140kts
07-Mar-14 13:23 33.532088 -118.550429 145 9960ft 142kts
07-Mar-14 13:24 33.499740 -118.523081 145 9959ft 142kts
07-Mar-14 13:25 33.467327 -118.495753 145 9957ft 142kts
07-Mar-14 13:26 33.435027 -118.468585 145 9954ft 142kts
07-Mar-14 13:27 33.403733 -118.442643 146 9450ft 127kts
07-Mar-14 13:28 33.374271 -118.421173 188 8728ft 118kts
07-Mar-14 13:29 33.344610 -118.432673 211 8051ft 112kts
07-Mar-14 13:30 33.312194 -118.435888 190 7355ft 122kts
07-Mar-14 13:31 33.277121 -118.437217 189 6646ft 126kts
07-Mar-14 13:32 33.241818 -118.427789 169 5944ft 132kts
07-Mar-14 13:33 33.206058 -118.418886 176 5287ft 131kts
07-Mar-14 13:34 33.170280 -118.413089 178 4724ft 128kts
07-Mar-14 13:35 33.134395 -118.408014 176 4160ft 134kts
07-Mar-14 13:36 33.099834 -118.408948 215 4078ft 125kts
07-Mar-14 13:37 33.077285 -118.439684 248 3392ft 125kts
07-Mar-14 13:38 33.063083 -118.477710 247 2690ft 125kts
07-Mar-14 13:39 33.049065 -118.514069 246 2436ft 116kts
07-Mar-14 13:40 33.035812 -118.551771 248 1747ft 116kts
07-Mar-14 13:41 33.023406 -118.586140 252 203ft 65kts
07-Mar-14 13:42 33.020355 -118.595265 248 185ft 14kts
07-Mar-14 13:43 33.018700 -118.595639 77 185ft 10kts
07-Mar-14 13:44 33.020067 -118.591725 67 185ft 14kts
07-Mar-14 13:45 33.021555 -118.587502 67 185ft 13kts
07-Mar-14 13:46 33.019977 -118.584978 156 185ft 8kts
07-Mar-14 13:47 33.019410 -118.584854 251 185ft 0kts
07-Mar-14 13:48 33.019410 -118.584854 251 185ft 0kts
07-Mar-14 13:49 33.019410 -118.584854 251 185ft 0kts
07-Mar-14 13:50 33.019410 -118.584854 251 185ft 0kts

Navigation Log

Ident Type
Flight plan parsing failed, navigation log unavailable